Terminal Aerodrome Forecast
Issued by NWS

Home | Current Version | Previous Version | Text Only | Print | Product List | Glossary On
Versions: 1 2 3 4 5 6 7 8 9 10 11 12 13 14 15 16 17 18 19 20 21
000
FTUS43 KBIS 070112 AAA
TAFJMS
TAF AMD
KJMS 070112Z 0701/0724 10013KT 2SM BR BKN006 OVC010
     FM070600 13008KT 2SM -SHRA BR BKN004 OVC008
     FM071600 33015G25KT P6SM -SHRA BKN015 OVC025
     FM071900 33018G28KT P6SM BKN025 OVC050=

USA.gov is the U.S. government's official web portal to all federal, state and local government web resources and services.